sensor_id;sensor_type;location;lat;lon;timestamp;P1;durP1;ratioP1;P2;durP2;ratioP2
61960;SDS011;47923;42.506;24.192;2024-02-04T00:01:43;12.23;;;5.75;;
61960;SDS011;47923;42.506;24.192;2024-02-04T00:04:10;12.35;;;5.78;;
61960;SDS011;47923;42.506;24.192;2024-02-04T00:06:36;12.90;;;6.60;;
61960;SDS011;47923;42.506;24.192;2024-02-04T00:09:02;12.10;;;6.38;;
61960;SDS011;47923;42.506;24.192;2024-02-04T00:11:32;10.55;;;5.60;;
61960;SDS011;47923;42.506;24.192;2024-02-04T00:13:58;10.82;;;6.03;;
61960;SDS011;47923;42.506;24.192;2024-02-04T00:16:23;11.93;;;5.90;;
61960;SDS011;47923;42.506;24.192;2024-02-04T00:18:51;13.68;;;6.22;;
61960;SDS011;47923;42.506;24.192;2024-02-04T00:21:17;11.15;;;5.10;;
61960;SDS011;47923;42.506;24.192;2024-02-04T00:23:43;11.88;;;5.63;;
61960;SDS011;47923;42.506;24.192;2024-02-04T00:26:08;12.02;;;5.90;;
61960;SDS011;47923;42.506;24.192;2024-02-04T00:28:34;10.77;;;5.93;;
61960;SDS011;47923;42.506;24.192;2024-02-04T00:31:00;11.52;;;5.85;;
61960;SDS011;47923;42.506;24.192;2024-02-04T00:33:27;11.15;;;6.32;;
61960;SDS011;47923;42.506;24.192;2024-02-04T00:35:52;9.50;;;4.82;;
61960;SDS011;47923;42.506;24.192;2024-02-04T00:38:18;13.30;;;5.40;;
61960;SDS011;47923;42.506;24.192;2024-02-04T00:40:49;10.07;;;5.57;;
61960;SDS011;47923;42.506;24.192;2024-02-04T00:43:18;10.70;;;4.88;;
61960;SDS011;47923;42.506;24.192;2024-02-04T00:45:47;11.23;;;5.68;;
61960;SDS011;47923;42.506;24.192;2024-02-04T00:48:13;13.75;;;6.13;;
61960;SDS011;47923;42.506;24.192;2024-02-04T00:50:39;12.63;;;5.93;;
61960;SDS011;47923;42.506;24.192;2024-02-04T00:53:05;10.40;;;5.35;;
61960;SDS011;47923;42.506;24.192;2024-02-04T00:55:32;11.27;;;6.15;;
61960;SDS011;47923;42.506;24.192;2024-02-04T00:57:57;14.48;;;6.43;;
61960;SDS011;47923;42.506;24.192;2024-02-04T01:00:25;16.10;;;7.35;;
61960;SDS011;47923;42.506;24.192;2024-02-04T01:02:52;13.63;;;6.93;;
61960;SDS011;47923;42.506;24.192;2024-02-04T01:05:17;10.77;;;6.13;;
61960;SDS011;47923;42.506;24.192;2024-02-04T01:07:43;13.20;;;6.28;;
61960;SDS011;47923;42.506;24.192;2024-02-04T01:10:09;14.00;;;7.07;;
61960;SDS011;47923;42.506;24.192;2024-02-04T01:12:35;11.45;;;6.75;;
61960;SDS011;47923;42.506;24.192;2024-02-04T01:15:01;13.75;;;7.25;;
61960;SDS011;47923;42.506;24.192;2024-02-04T01:17:31;12.15;;;6.90;;
61960;SDS011;47923;42.506;24.192;2024-02-04T01:20:00;17.17;;;8.20;;
61960;SDS011;47923;42.506;24.192;2024-02-04T01:22:26;34.92;;;23.42;;
61960;SDS011;47923;42.506;24.192;2024-02-04T01:24:52;37.97;;;24.17;;
61960;SDS011;47923;42.506;24.192;2024-02-04T01:27:18;15.20;;;8.70;;
61960;SDS011;47923;42.506;24.192;2024-02-04T01:29:44;22.17;;;13.48;;
61960;SDS011;47923;42.506;24.192;2024-02-04T01:32:11;26.23;;;13.82;;
61960;SDS011;47923;42.506;24.192;2024-02-04T01:34:38;23.40;;;14.27;;
61960;SDS011;47923;42.506;24.192;2024-02-04T01:37:05;23.27;;;14.40;;
61960;SDS011;47923;42.506;24.192;2024-02-04T01:39:34;19.10;;;10.57;;
61960;SDS011;47923;42.506;24.192;2024-02-04T01:42:00;14.95;;;7.50;;
61960;SDS011;47923;42.506;24.192;2024-02-04T01:44:26;15.32;;;10.65;;
61960;SDS011;47923;42.506;24.192;2024-02-04T01:46:53;14.63;;;7.63;;
61960;SDS011;47923;42.506;24.192;2024-02-04T01:49:19;14.77;;;8.65;;
61960;SDS011;47923;42.506;24.192;2024-02-04T01:51:45;12.25;;;6.70;;
61960;SDS011;47923;42.506;24.192;2024-02-04T01:54:11;12.30;;;5.68;;
61960;SDS011;47923;42.506;24.192;2024-02-04T01:56:38;16.02;;;8.05;;
61960;SDS011;47923;42.506;24.192;2024-02-04T01:59:06;11.18;;;6.05;;
61960;SDS011;47923;42.506;24.192;2024-02-04T02:01:35;10.05;;;5.43;;
61960;SDS011;47923;42.506;24.192;2024-02-04T02:04:03;11.77;;;5.20;;
61960;SDS011;47923;42.506;24.192;2024-02-04T02:06:31;9.57;;;4.95;;
61960;SDS011;47923;42.506;24.192;2024-02-04T02:09:00;12.68;;;6.07;;
61960;SDS011;47923;42.506;24.192;2024-02-04T02:11:32;11.77;;;5.50;;
61960;SDS011;47923;42.506;24.192;2024-02-04T02:14:14;10.45;;;5.10;;
61960;SDS011;47923;42.506;24.192;2024-02-04T02:16:41;10.25;;;5.10;;
61960;SDS011;47923;42.506;24.192;2024-02-04T02:22:06;9.98;;;5.82;;
61960;SDS011;47923;42.506;24.192;2024-02-04T02:24:52;9.55;;;5.20;;
61960;SDS011;47923;42.506;24.192;2024-02-04T02:27:22;10.25;;;5.30;;
61960;SDS011;47923;42.506;24.192;2024-02-04T02:29:47;10.38;;;4.80;;
61960;SDS011;47923;42.506;24.192;2024-02-04T02:32:13;13.93;;;6.50;;
61960;SDS011;47923;42.506;24.192;2024-02-04T02:34:42;10.93;;;5.63;;
61960;SDS011;47923;42.506;24.192;2024-02-04T02:37:11;10.25;;;5.47;;
61960;SDS011;47923;42.506;24.192;2024-02-04T02:40:09;9.50;;;5.03;;
61960;SDS011;47923;42.506;24.192;2024-02-04T02:42:45;11.50;;;5.40;;
61960;SDS011;47923;42.506;24.192;2024-02-04T02:45:14;10.77;;;5.95;;
61960;SDS011;47923;42.506;24.192;2024-02-04T02:47:48;10.40;;;5.50;;
61960;SDS011;47923;42.506;24.192;2024-02-04T02:50:16;11.32;;;5.13;;
61960;SDS011;47923;42.506;24.192;2024-02-04T02:52:42;9.48;;;5.18;;
61960;SDS011;47923;42.506;24.192;2024-02-04T02:55:09;10.65;;;5.70;;
61960;SDS011;47923;42.506;24.192;2024-02-04T02:57:36;12.90;;;5.97;;
61960;SDS011;47923;42.506;24.192;2024-02-04T03:00:04;9.95;;;5.55;;
61960;SDS011;47923;42.506;24.192;2024-02-04T03:02:31;10.13;;;5.25;;
61960;SDS011;47923;42.506;24.192;2024-02-04T03:04:59;11.13;;;5.43;;
61960;SDS011;47923;42.506;24.192;2024-02-04T03:07:25;11.55;;;5.30;;
61960;SDS011;47923;42.506;24.192;2024-02-04T03:09:52;9.77;;;5.20;;
61960;SDS011;47923;42.506;24.192;2024-02-04T03:12:18;10.73;;;4.80;;
61960;SDS011;47923;42.506;24.192;2024-02-04T03:14:43;11.73;;;5.90;;
61960;SDS011;47923;42.506;24.192;2024-02-04T03:17:09;10.93;;;5.20;;
61960;SDS011;47923;42.506;24.192;2024-02-04T03:19:37;11.45;;;6.30;;
61960;SDS011;47923;42.506;24.192;2024-02-04T03:22:04;11.30;;;6.20;;
61960;SDS011;47923;42.506;24.192;2024-02-04T03:24:34;10.48;;;5.70;;
61960;SDS011;47923;42.506;24.192;2024-02-04T03:27:02;11.32;;;6.15;;
61960;SDS011;47923;42.506;24.192;2024-02-04T03:29:29;10.52;;;5.97;;
61960;SDS011;47923;42.506;24.192;2024-02-04T03:31:55;10.40;;;6.00;;
61960;SDS011;47923;42.506;24.192;2024-02-04T03:34:21;13.02;;;5.47;;
61960;SDS011;47923;42.506;24.192;2024-02-04T03:36:47;10.55;;;5.05;;
61960;SDS011;47923;42.506;24.192;2024-02-04T03:39:12;10.93;;;5.25;;
61960;SDS011;47923;42.506;24.192;2024-02-04T03:41:38;10.77;;;5.50;;
61960;SDS011;47923;42.506;24.192;2024-02-04T03:44:04;11.25;;;5.28;;
61960;SDS011;47923;42.506;24.192;2024-02-04T03:46:31;11.25;;;5.35;;
61960;SDS011;47923;42.506;24.192;2024-02-04T03:48:59;10.70;;;5.72;;
61960;SDS011;47923;42.506;24.192;2024-02-04T03:51:26;10.07;;;5.93;;
61960;SDS011;47923;42.506;24.192;2024-02-04T03:53:51;12.70;;;6.57;;
61960;SDS011;47923;42.506;24.192;2024-02-04T03:56:19;12.95;;;5.35;;
61960;SDS011;47923;42.506;24.192;2024-02-04T03:58:48;10.48;;;5.60;;
61960;SDS011;47923;42.506;24.192;2024-02-04T04:01:15;12.25;;;6.22;;
61960;SDS011;47923;42.506;24.192;2024-02-04T04:03:42;11.85;;;5.30;;
61960;SDS011;47923;42.506;24.192;2024-02-04T04:06:10;10.10;;;5.22;;
61960;SDS011;47923;42.506;24.192;2024-02-04T04:08:36;11.82;;;5.78;;
61960;SDS011;47923;42.506;24.192;2024-02-04T04:11:02;13.00;;;6.25;;
61960;SDS011;47923;42.506;24.192;2024-02-04T04:13:33;7.90;;;4.55;;
61960;SDS011;47923;42.506;24.192;2024-02-04T04:16:00;9.77;;;5.03;;
61960;SDS011;47923;42.506;24.192;2024-02-04T04:18:29;9.75;;;5.20;;
61960;SDS011;47923;42.506;24.192;2024-02-04T04:20:57;9.57;;;5.20;;
61960;SDS011;47923;42.506;24.192;2024-02-04T04:23:25;12.27;;;5.22;;
61960;SDS011;47923;42.506;24.192;2024-02-04T04:25:53;9.75;;;5.43;;
61960;SDS011;47923;42.506;24.192;2024-02-04T04:28:19;8.65;;;5.15;;
61960;SDS011;47923;42.506;24.192;2024-02-04T04:30:47;12.15;;;5.65;;
61960;SDS011;47923;42.506;24.192;2024-02-04T04:33:17;9.77;;;5.38;;
61960;SDS011;47923;42.506;24.192;2024-02-04T04:35:46;10.95;;;5.88;;
61960;SDS011;47923;42.506;24.192;2024-02-04T04:38:12;11.63;;;6.18;;
61960;SDS011;47923;42.506;24.192;2024-02-04T04:40:38;9.60;;;5.20;;
61960;SDS011;47923;42.506;24.192;2024-02-04T04:43:05;10.30;;;5.35;;
61960;SDS011;47923;42.506;24.192;2024-02-04T04:45:31;10.90;;;5.43;;
61960;SDS011;47923;42.506;24.192;2024-02-04T04:47:57;9.07;;;5.00;;
61960;SDS011;47923;42.506;24.192;2024-02-04T04:50:25;10.13;;;5.35;;
61960;SDS011;47923;42.506;24.192;2024-02-04T04:52:51;8.40;;;5.15;;
61960;SDS011;47923;42.506;24.192;2024-02-04T04:55:16;12.05;;;6.60;;
61960;SDS011;47923;42.506;24.192;2024-02-04T04:57:42;9.60;;;5.70;;
61960;SDS011;47923;42.506;24.192;2024-02-04T05:00:08;12.30;;;6.88;;
61960;SDS011;47923;42.506;24.192;2024-02-04T05:02:39;16.48;;;8.23;;
61960;SDS011;47923;42.506;24.192;2024-02-04T05:05:05;15.82;;;7.70;;
61960;SDS011;47923;42.506;24.192;2024-02-04T05:07:32;11.40;;;5.40;;
61960;SDS011;47923;42.506;24.192;2024-02-04T05:09:58;13.65;;;8.23;;
61960;SDS011;47923;42.506;24.192;2024-02-04T05:12:24;12.30;;;7.57;;
61960;SDS011;47923;42.506;24.192;2024-02-04T05:14:52;10.85;;;6.35;;
61960;SDS011;47923;42.506;24.192;2024-02-04T05:17:18;11.60;;;7.20;;
61960;SDS011;47923;42.506;24.192;2024-02-04T05:19:44;13.00;;;6.97;;
61960;SDS011;47923;42.506;24.192;2024-02-04T05:22:10;14.40;;;7.00;;
61960;SDS011;47923;42.506;24.192;2024-02-04T05:24:36;12.82;;;6.05;;
61960;SDS011;47923;42.506;24.192;2024-02-04T05:27:05;10.13;;;5.72;;
61960;SDS011;47923;42.506;24.192;2024-02-04T05:29:31;11.70;;;5.15;;
61960;SDS011;47923;42.506;24.192;2024-02-04T05:31:56;10.73;;;5.75;;
61960;SDS011;47923;42.506;24.192;2024-02-04T05:34:22;9.73;;;5.93;;
61960;SDS011;47923;42.506;24.192;2024-02-04T05:36:50;11.25;;;6.45;;
61960;SDS011;47923;42.506;24.192;2024-02-04T05:39:15;10.98;;;5.90;;
61960;SDS011;47923;42.506;24.192;2024-02-04T05:41:42;9.57;;;4.93;;
61960;SDS011;47923;42.506;24.192;2024-02-04T05:44:08;9.57;;;5.00;;
61960;SDS011;47923;42.506;24.192;2024-02-04T05:46:37;10.20;;;5.68;;
61960;SDS011;47923;42.506;24.192;2024-02-04T05:49:03;10.65;;;5.63;;
61960;SDS011;47923;42.506;24.192;2024-02-04T05:51:30;9.65;;;5.07;;
61960;SDS011;47923;42.506;24.192;2024-02-04T05:53:56;9.70;;;5.22;;
61960;SDS011;47923;42.506;24.192;2024-02-04T05:56:22;9.65;;;5.13;;
61960;SDS011;47923;42.506;24.192;2024-02-04T05:58:47;10.10;;;5.63;;
61960;SDS011;47923;42.506;24.192;2024-02-04T06:01:16;13.10;;;6.18;;
61960;SDS011;47923;42.506;24.192;2024-02-04T06:03:42;11.93;;;6.25;;
61960;SDS011;47923;42.506;24.192;2024-02-04T06:06:16;11.88;;;6.15;;
61960;SDS011;47923;42.506;24.192;2024-02-04T06:08:47;10.73;;;5.65;;
61960;SDS011;47923;42.506;24.192;2024-02-04T06:11:14;11.70;;;7.30;;
61960;SDS011;47923;42.506;24.192;2024-02-04T06:13:40;12.02;;;6.20;;
61960;SDS011;47923;42.506;24.192;2024-02-04T06:16:09;10.57;;;5.85;;
61960;SDS011;47923;42.506;24.192;2024-02-04T06:18:37;9.20;;;5.20;;
61960;SDS011;47923;42.506;24.192;2024-02-04T06:21:06;11.60;;;6.15;;
61960;SDS011;47923;42.506;24.192;2024-02-04T06:23:31;9.20;;;4.85;;
61960;SDS011;47923;42.506;24.192;2024-02-04T06:25:57;10.43;;;5.75;;
61960;SDS011;47923;42.506;24.192;2024-02-04T06:28:23;9.45;;;5.15;;
61960;SDS011;47923;42.506;24.192;2024-02-04T06:30:52;9.70;;;5.72;;
61960;SDS011;47923;42.506;24.192;2024-02-04T06:33:22;10.68;;;5.93;;
61960;SDS011;47923;42.506;24.192;2024-02-04T06:35:49;10.98;;;5.30;;
61960;SDS011;47923;42.506;24.192;2024-02-04T06:38:15;9.25;;;5.82;;
61960;SDS011;47923;42.506;24.192;2024-02-04T06:40:41;14.35;;;7.00;;
61960;SDS011;47923;42.506;24.192;2024-02-04T06:43:07;11.38;;;6.28;;
61960;SDS011;47923;42.506;24.192;2024-02-04T06:45:33;10.07;;;4.90;;
61960;SDS011;47923;42.506;24.192;2024-02-04T06:47:59;12.60;;;6.40;;
61960;SDS011;47923;42.506;24.192;2024-02-04T06:50:26;11.60;;;6.20;;
61960;SDS011;47923;42.506;24.192;2024-02-04T06:52:52;13.15;;;7.72;;
61960;SDS011;47923;42.506;24.192;2024-02-04T06:55:18;15.82;;;8.98;;
61960;SDS011;47923;42.506;24.192;2024-02-04T06:57:44;14.65;;;8.32;;
61960;SDS011;47923;42.506;24.192;2024-02-04T07:00:10;13.18;;;7.47;;
61960;SDS011;47923;42.506;24.192;2024-02-04T07:02:36;11.77;;;7.72;;
61960;SDS011;47923;42.506;24.192;2024-02-04T07:05:03;14.40;;;8.45;;
61960;SDS011;47923;42.506;24.192;2024-02-04T07:07:29;17.30;;;9.50;;
61960;SDS011;47923;42.506;24.192;2024-02-04T07:09:56;19.40;;;10.50;;
61960;SDS011;47923;42.506;24.192;2024-02-04T07:12:23;21.20;;;10.27;;
61960;SDS011;47923;42.506;24.192;2024-02-04T07:14:49;22.35;;;10.82;;
61960;SDS011;47923;42.506;24.192;2024-02-04T07:17:18;21.00;;;12.43;;
61960;SDS011;47923;42.506;24.192;2024-02-04T07:19:46;17.75;;;9.07;;
61960;SDS011;47923;42.506;24.192;2024-02-04T07:22:17;17.17;;;10.50;;
61960;SDS011;47923;42.506;24.192;2024-02-04T07:24:43;21.85;;;11.23;;
61960;SDS011;47923;42.506;24.192;2024-02-04T07:27:08;19.38;;;11.80;;
61960;SDS011;47923;42.506;24.192;2024-02-04T07:29:35;16.45;;;10.18;;
61960;SDS011;47923;42.506;24.192;2024-02-04T07:32:01;12.80;;;8.35;;
61960;SDS011;47923;42.506;24.192;2024-02-04T07:34:29;15.38;;;9.48;;
61960;SDS011;47923;42.506;24.192;2024-02-04T07:36:55;17.13;;;10.27;;
61960;SDS011;47923;42.506;24.192;2024-02-04T07:39:21;17.27;;;10.05;;
61960;SDS011;47923;42.506;24.192;2024-02-04T07:41:47;17.20;;;9.07;;
61960;SDS011;47923;42.506;24.192;2024-02-04T07:44:13;18.15;;;10.18;;
61960;SDS011;47923;42.506;24.192;2024-02-04T07:46:39;15.15;;;8.90;;
61960;SDS011;47923;42.506;24.192;2024-02-04T07:49:05;11.77;;;6.63;;
61960;SDS011;47923;42.506;24.192;2024-02-04T07:51:31;12.07;;;6.75;;
61960;SDS011;47923;42.506;24.192;2024-02-04T07:53:58;12.38;;;6.30;;
61960;SDS011;47923;42.506;24.192;2024-02-04T07:56:24;11.63;;;6.72;;
61960;SDS011;47923;42.506;24.192;2024-02-04T07:58:50;9.63;;;5.53;;
61960;SDS011;47923;42.506;24.192;2024-02-04T08:01:17;12.68;;;6.63;;
61960;SDS011;47923;42.506;24.192;2024-02-04T08:03:44;9.95;;;6.07;;
61960;SDS011;47923;42.506;24.192;2024-02-04T08:06:11;11.55;;;7.43;;
61960;SDS011;47923;42.506;24.192;2024-02-04T08:08:38;13.35;;;8.05;;
61960;SDS011;47923;42.506;24.192;2024-02-04T08:11:04;9.27;;;5.18;;
61960;SDS011;47923;42.506;24.192;2024-02-04T08:13:36;9.98;;;5.57;;
61960;SDS011;47923;42.506;24.192;2024-02-04T08:16:03;9.77;;;5.30;;
61960;SDS011;47923;42.506;24.192;2024-02-04T08:18:28;12.02;;;8.38;;
61960;SDS011;47923;42.506;24.192;2024-02-04T08:20:56;11.35;;;5.75;;
61960;SDS011;47923;42.506;24.192;2024-02-04T08:23:22;10.20;;;6.00;;
61960;SDS011;47923;42.506;24.192;2024-02-04T08:25:51;11.82;;;6.00;;
61960;SDS011;47923;42.506;24.192;2024-02-04T08:28:19;13.48;;;6.40;;
61960;SDS011;47923;42.506;24.192;2024-02-04T08:30:44;10.30;;;5.63;;
61960;SDS011;47923;42.506;24.192;2024-02-04T08:33:11;12.43;;;6.82;;
61960;SDS011;47923;42.506;24.192;2024-02-04T08:35:40;10.23;;;5.50;;
61960;SDS011;47923;42.506;24.192;2024-02-04T08:38:05;10.20;;;5.88;;
61960;SDS011;47923;42.506;24.192;2024-02-04T08:40:31;10.98;;;6.53;;
61960;SDS011;47923;42.506;24.192;2024-02-04T08:42:59;9.68;;;5.53;;
61960;SDS011;47923;42.506;24.192;2024-02-04T08:45:24;11.50;;;7.00;;
61960;SDS011;47923;42.506;24.192;2024-02-04T08:47:49;10.98;;;5.65;;
61960;SDS011;47923;42.506;24.192;2024-02-04T08:50:18;9.23;;;5.35;;
61960;SDS011;47923;42.506;24.192;2024-02-04T08:52:45;14.73;;;4.93;;
61960;SDS011;47923;42.506;24.192;2024-02-04T08:55:11;11.68;;;7.78;;
61960;SDS011;47923;42.506;24.192;2024-02-04T08:57:39;9.98;;;5.47;;
61960;SDS011;47923;42.506;24.192;2024-02-04T09:00:07;10.35;;;4.90;;
61960;SDS011;47923;42.506;24.192;2024-02-04T09:02:37;8.93;;;5.20;;
61960;SDS011;47923;42.506;24.192;2024-02-04T09:05:04;13.57;;;9.48;;
61960;SDS011;47923;42.506;24.192;2024-02-04T09:07:30;9.95;;;5.68;;
61960;SDS011;47923;42.506;24.192;2024-02-04T09:09:56;11.15;;;4.82;;
61960;SDS011;47923;42.506;24.192;2024-02-04T09:12:21;9.35;;;5.43;;
61960;SDS011;47923;42.506;24.192;2024-02-04T09:14:47;7.90;;;4.82;;
61960;SDS011;47923;42.506;24.192;2024-02-04T09:17:14;11.05;;;5.28;;
61960;SDS011;47923;42.506;24.192;2024-02-04T09:19:41;9.98;;;6.22;;
61960;SDS011;47923;42.506;24.192;2024-02-04T09:22:07;8.50;;;4.70;;
61960;SDS011;47923;42.506;24.192;2024-02-04T09:24:32;9.13;;;4.93;;
61960;SDS011;47923;42.506;24.192;2024-02-04T09:26:58;13.80;;;7.72;;
61960;SDS011;47923;42.506;24.192;2024-02-04T09:29:24;18.65;;;6.95;;
61960;SDS011;47923;42.506;24.192;2024-02-04T09:31:50;14.63;;;8.30;;
61960;SDS011;47923;42.506;24.192;2024-02-04T09:34:17;11.30;;;5.38;;
61960;SDS011;47923;42.506;24.192;2024-02-04T09:36:44;13.80;;;6.75;;
61960;SDS011;47923;42.506;24.192;2024-02-04T09:39:10;11.48;;;6.43;;
61960;SDS011;47923;42.506;24.192;2024-02-04T09:41:37;12.23;;;7.90;;
61960;SDS011;47923;42.506;24.192;2024-02-04T09:44:03;10.57;;;4.65;;
61960;SDS011;47923;42.506;24.192;2024-02-04T09:46:31;8.15;;;4.20;;
61960;SDS011;47923;42.506;24.192;2024-02-04T09:48:57;8.23;;;4.93;;
61960;SDS011;47923;42.506;24.192;2024-02-04T09:51:23;9.43;;;4.13;;
61960;SDS011;47923;42.506;24.192;2024-02-04T09:53:53;11.30;;;5.97;;
61960;SDS011;47923;42.506;24.192;2024-02-04T09:56:25;9.23;;;4.35;;
61960;SDS011;47923;42.506;24.192;2024-02-04T09:58:58;10.38;;;5.00;;
61960;SDS011;47923;42.506;24.192;2024-02-04T10:01:26;9.68;;;4.15;;
61960;SDS011;47923;42.506;24.192;2024-02-04T10:04:03;8.68;;;4.90;;
61960;SDS011;47923;42.506;24.192;2024-02-04T10:06:30;8.73;;;4.70;;
61960;SDS011;47923;42.506;24.192;2024-02-04T10:11:51;10.02;;;3.28;;
61960;SDS011;47923;42.506;24.192;2024-02-04T10:14:18;6.00;;;2.72;;
61960;SDS011;47923;42.506;24.192;2024-02-04T10:16:46;10.55;;;5.78;;
61960;SDS011;47923;42.506;24.192;2024-02-04T10:19:12;7.20;;;3.67;;
61960;SDS011;47923;42.506;24.192;2024-02-04T10:21:38;9.27;;;4.40;;
61960;SDS011;47923;42.506;24.192;2024-02-04T10:24:09;8.18;;;3.83;;
61960;SDS011;47923;42.506;24.192;2024-02-04T10:26:35;6.95;;;3.40;;
61960;SDS011;47923;42.506;24.192;2024-02-04T10:29:03;7.03;;;3.00;;
61960;SDS011;47923;42.506;24.192;2024-02-04T10:31:30;7.10;;;3.00;;
61960;SDS011;47923;42.506;24.192;2024-02-04T10:33:56;9.32;;;3.55;;
61960;SDS011;47923;42.506;24.192;2024-02-04T10:36:34;10.50;;;3.25;;
61960;SDS011;47923;42.506;24.192;2024-02-04T10:39:00;7.50;;;3.20;;
61960;SDS011;47923;42.506;24.192;2024-02-04T10:41:26;8.88;;;2.95;;
61960;SDS011;47923;42.506;24.192;2024-02-04T10:43:56;8.82;;;3.70;;
61960;SDS011;47923;42.506;24.192;2024-02-04T10:46:29;7.05;;;3.15;;
61960;SDS011;47923;42.506;24.192;2024-02-04T10:48:59;8.02;;;2.60;;
61960;SDS011;47923;42.506;24.192;2024-02-04T10:51:28;4.88;;;2.38;;
61960;SDS011;47923;42.506;24.192;2024-02-04T10:53:56;5.85;;;2.95;;
61960;SDS011;47923;42.506;24.192;2024-02-04T10:59:13;11.00;;;2.70;;
61960;SDS011;47923;42.506;24.192;2024-02-04T11:01:43;7.57;;;2.70;;
61960;SDS011;47923;42.506;24.192;2024-02-04T11:04:09;13.35;;;2.72;;
61960;SDS011;47923;42.506;24.192;2024-02-04T11:06:37;4.57;;;2.13;;
61960;SDS011;47923;42.506;24.192;2024-02-04T11:09:04;7.13;;;3.08;;
61960;SDS011;47923;42.506;24.192;2024-02-04T11:11:31;8.88;;;2.47;;
61960;SDS011;47923;42.506;24.192;2024-02-04T11:13:59;6.80;;;2.60;;
61960;SDS011;47923;42.506;24.192;2024-02-04T11:27:58;6.20;;;2.50;;
61960;SDS011;47923;42.506;24.192;2024-02-04T11:30:24;5.47;;;2.58;;
61960;SDS011;47923;42.506;24.192;2024-02-04T11:32:51;5.78;;;2.75;;
61960;SDS011;47923;42.506;24.192;2024-02-04T11:35:16;5.75;;;3.60;;
61960;SDS011;47923;42.506;24.192;2024-02-04T11:37:43;7.28;;;3.03;;
61960;SDS011;47923;42.506;24.192;2024-02-04T11:40:14;5.57;;;1.95;;
61960;SDS011;47923;42.506;24.192;2024-02-04T11:42:46;10.10;;;4.35;;
61960;SDS011;47923;42.506;24.192;2024-02-04T11:45:12;5.05;;;2.65;;
61960;SDS011;47923;42.506;24.192;2024-02-04T11:47:39;6.25;;;2.47;;
61960;SDS011;47923;42.506;24.192;2024-02-04T11:50:05;4.28;;;2.30;;
61960;SDS011;47923;42.506;24.192;2024-02-04T11:52:32;5.53;;;2.70;;
61960;SDS011;47923;42.506;24.192;2024-02-04T11:55:00;6.63;;;2.47;;
61960;SDS011;47923;42.506;24.192;2024-02-04T11:57:26;6.47;;;2.97;;
61960;SDS011;47923;42.506;24.192;2024-02-04T11:59:56;7.00;;;2.58;;
61960;SDS011;47923;42.506;24.192;2024-02-04T12:02:23;6.40;;;2.95;;
61960;SDS011;47923;42.506;24.192;2024-02-04T12:04:52;7.32;;;2.58;;
61960;SDS011;47923;42.506;24.192;2024-02-04T12:07:18;7.75;;;2.58;;
61960;SDS011;47923;42.506;24.192;2024-02-04T12:09:47;6.95;;;3.85;;
61960;SDS011;47923;42.506;24.192;2024-02-04T12:12:13;7.22;;;2.97;;
61960;SDS011;47923;42.506;24.192;2024-02-04T12:14:44;6.13;;;2.80;;
61960;SDS011;47923;42.506;24.192;2024-02-04T12:17:10;10.57;;;3.63;;
61960;SDS011;47923;42.506;24.192;2024-02-04T12:19:38;8.40;;;4.05;;
61960;SDS011;47923;42.506;24.192;2024-02-04T12:22:04;5.20;;;2.10;;
61960;SDS011;47923;42.506;24.192;2024-02-04T12:24:38;5.53;;;2.70;;
61960;SDS011;47923;42.506;24.192;2024-02-04T12:27:04;8.90;;;3.35;;
61960;SDS011;47923;42.506;24.192;2024-02-04T12:29:30;7.57;;;2.78;;
61960;SDS011;47923;42.506;24.192;2024-02-04T12:32:00;10.32;;;2.85;;
61960;SDS011;47923;42.506;24.192;2024-02-04T12:34:29;13.13;;;7.47;;
61960;SDS011;47923;42.506;24.192;2024-02-04T12:37:00;6.05;;;3.00;;
61960;SDS011;47923;42.506;24.192;2024-02-04T12:39:26;10.88;;;4.07;;
61960;SDS011;47923;42.506;24.192;2024-02-04T12:41:55;5.90;;;2.33;;
61960;SDS011;47923;42.506;24.192;2024-02-04T12:44:21;6.03;;;2.55;;
61960;SDS011;47923;42.506;24.192;2024-02-04T12:46:50;7.57;;;3.50;;
61960;SDS011;47923;42.506;24.192;2024-02-04T12:49:20;6.35;;;2.33;;
61960;SDS011;47923;42.506;24.192;2024-02-04T12:51:51;4.85;;;2.20;;
61960;SDS011;47923;42.506;24.192;2024-02-04T12:54:18;3.83;;;2.20;;
61960;SDS011;47923;42.506;24.192;2024-02-04T12:56:45;6.38;;;2.50;;
61960;SDS011;47923;42.506;24.192;2024-02-04T12:59:30;7.90;;;5.05;;
61960;SDS011;47923;42.506;24.192;2024-02-04T13:02:00;5.82;;;1.70;;
61960;SDS011;47923;42.506;24.192;2024-02-04T13:04:33;6.03;;;2.63;;
61960;SDS011;47923;42.506;24.192;2024-02-04T13:07:07;5.32;;;2.67;;
61960;SDS011;47923;42.506;24.192;2024-02-04T13:09:41;4.93;;;2.33;;
61960;SDS011;47923;42.506;24.192;2024-02-04T13:12:08;5.90;;;2.80;;
61960;SDS011;47923;42.506;24.192;2024-02-04T13:14:41;7.47;;;2.95;;
61960;SDS011;47923;42.506;24.192;2024-02-04T13:17:08;7.63;;;3.47;;
61960;SDS011;47923;42.506;24.192;2024-02-04T13:19:35;5.82;;;3.10;;
61960;SDS011;47923;42.506;24.192;2024-02-04T13:22:03;7.30;;;2.97;;
61960;SDS011;47923;42.506;24.192;2024-02-04T13:24:29;8.15;;;5.00;;
61960;SDS011;47923;42.506;24.192;2024-02-04T13:26:55;6.95;;;2.92;;
61960;SDS011;47923;42.506;24.192;2024-02-04T13:29:21;8.77;;;2.67;;
61960;SDS011;47923;42.506;24.192;2024-02-04T13:31:48;7.22;;;3.58;;
61960;SDS011;47923;42.506;24.192;2024-02-04T13:34:14;6.47;;;3.22;;
61960;SDS011;47923;42.506;24.192;2024-02-04T13:36:41;6.18;;;2.50;;
61960;SDS011;47923;42.506;24.192;2024-02-04T13:39:08;5.68;;;2.58;;
61960;SDS011;47923;42.506;24.192;2024-02-04T13:41:34;7.43;;;2.75;;
61960;SDS011;47923;42.506;24.192;2024-02-04T13:44:02;8.07;;;2.92;;
61960;SDS011;47923;42.506;24.192;2024-02-04T13:46:29;9.23;;;2.45;;
61960;SDS011;47923;42.506;24.192;2024-02-04T13:48:54;4.30;;;2.65;;
61960;SDS011;47923;42.506;24.192;2024-02-04T13:51:19;3.83;;;1.80;;
61960;SDS011;47923;42.506;24.192;2024-02-04T13:53:52;5.07;;;2.35;;
61960;SDS011;47923;42.506;24.192;2024-02-04T13:56:17;6.43;;;2.60;;
61960;SDS011;47923;42.506;24.192;2024-02-04T13:58:44;4.63;;;2.05;;
61960;SDS011;47923;42.506;24.192;2024-02-04T14:01:11;6.50;;;2.47;;
61960;SDS011;47923;42.506;24.192;2024-02-04T14:03:38;8.27;;;2.85;;
61960;SDS011;47923;42.506;24.192;2024-02-04T14:06:04;5.90;;;2.70;;
61960;SDS011;47923;42.506;24.192;2024-02-04T14:08:30;4.63;;;2.15;;
61960;SDS011;47923;42.506;24.192;2024-02-04T14:10:56;6.63;;;2.50;;
61960;SDS011;47923;42.506;24.192;2024-02-04T14:13:22;7.22;;;3.30;;
61960;SDS011;47923;42.506;24.192;2024-02-04T14:15:47;4.55;;;2.15;;
61960;SDS011;47923;42.506;24.192;2024-02-04T14:18:13;6.25;;;2.42;;
61960;SDS011;47923;42.506;24.192;2024-02-04T14:20:40;4.88;;;2.45;;
61960;SDS011;47923;42.506;24.192;2024-02-04T14:23:06;5.55;;;2.78;;
61960;SDS011;47923;42.506;24.192;2024-02-04T14:25:34;6.18;;;2.80;;
61960;SDS011;47923;42.506;24.192;2024-02-04T14:28:00;10.35;;;3.03;;
61960;SDS011;47923;42.506;24.192;2024-02-04T14:30:26;6.38;;;3.72;;
61960;SDS011;47923;42.506;24.192;2024-02-04T14:32:56;7.95;;;3.33;;
61960;SDS011;47923;42.506;24.192;2024-02-04T14:35:24;6.43;;;2.97;;
61960;SDS011;47923;42.506;24.192;2024-02-04T14:37:49;10.70;;;4.10;;
61960;SDS011;47923;42.506;24.192;2024-02-04T14:40:16;7.32;;;4.00;;
61960;SDS011;47923;42.506;24.192;2024-02-04T14:42:44;7.38;;;4.05;;
61960;SDS011;47923;42.506;24.192;2024-02-04T14:45:12;8.70;;;4.05;;
61960;SDS011;47923;42.506;24.192;2024-02-04T14:47:38;10.88;;;6.72;;